createdAt,value
2019-01-29T00:01:07.085Z,0
2019-01-29T00:02:15.127Z,0
2019-01-29T00:03:23.193Z,0
2019-01-29T00:04:31.248Z,0
2019-01-29T00:05:39.298Z,0
2019-01-29T00:06:47.358Z,0
2019-01-29T00:07:55.419Z,0
2019-01-29T00:09:03.467Z,0
2019-01-29T00:10:11.511Z,0
2019-01-29T00:11:19.612Z,0
2019-01-29T00:12:27.660Z,0
2019-01-29T00:13:35.685Z,0
2019-01-29T00:14:43.772Z,0
2019-01-29T00:15:51.809Z,0
2019-01-29T00:16:59.850Z,0
2019-01-29T00:18:07.904Z,0
2019-01-29T00:19:15.963Z,0
2019-01-29T00:20:23.999Z,0
2019-01-29T00:21:32.076Z,0
2019-01-29T00:22:40.126Z,0
2019-01-29T00:23:48.189Z,0
2019-01-29T00:24:56.235Z,0
2019-01-29T00:26:04.265Z,0
2019-01-29T00:27:12.338Z,0
2019-01-29T00:28:20.408Z,0
2019-01-29T00:29:28.466Z,0
2019-01-29T00:30:36.522Z,0
2019-01-29T00:31:44.533Z,0
2019-01-29T00:32:52.624Z,0
2019-01-29T00:34:00.699Z,0
2019-01-29T00:35:08.740Z,0
2019-01-29T00:36:16.800Z,0
2019-01-29T00:37:24.834Z,0
2019-01-29T00:38:32.907Z,0
2019-01-29T00:39:40.960Z,0
2019-01-29T00:40:49.014Z,0
2019-01-29T00:41:57.068Z,0
2019-01-29T00:43:05.122Z,0
2019-01-29T00:44:13.185Z,0
2019-01-29T00:45:21.238Z,0
2019-01-29T00:46:29.283Z,0
2019-01-29T00:47:37.340Z,0
2019-01-29T00:48:45.405Z,0
2019-01-29T00:49:53.457Z,0
2019-01-29T00:51:01.516Z,0
2019-01-29T00:52:09.565Z,0
2019-01-29T00:53:17.647Z,0
2019-01-29T00:54:25.678Z,0
2019-01-29T00:55:33.729Z,0
2019-01-29T00:56:41.786Z,0
2019-01-29T00:57:49.841Z,0
2019-01-29T00:58:57.905Z,0
2019-01-29T01:00:05.945Z,0
2019-01-29T01:01:13.994Z,0
2019-01-29T01:02:22.074Z,0
2019-01-29T01:03:30.135Z,0
2019-01-29T01:04:38.175Z,0
2019-01-29T01:05:46.235Z,0
2019-01-29T01:06:54.266Z,0
2019-01-29T01:08:02.340Z,0
2019-01-29T01:09:10.417Z,0
2019-01-29T01:10:18.482Z,0
2019-01-29T01:11:26.508Z,0
2019-01-29T01:12:34.557Z,0
2019-01-29T01:13:42.656Z,0
2019-01-29T01:14:50.674Z,0
2019-01-29T01:15:58.730Z,0
2019-01-29T01:17:06.797Z,0
2019-01-29T01:18:14.842Z,0
2019-01-29T01:19:22.905Z,0
2019-01-29T01:20:30.949Z,0
2019-01-29T01:21:39.019Z,0
2019-01-29T01:22:50.919Z,0
2019-01-29T01:23:55.112Z,0
2019-01-29T01:25:03.170Z,0
2019-01-29T01:26:11.226Z,0
2019-01-29T01:27:19.288Z,0
2019-01-29T01:28:27.336Z,0
2019-01-29T01:29:35.407Z,0
2019-01-29T01:30:43.480Z,0
2019-01-29T01:31:51.535Z,0
2019-01-29T01:32:59.553Z,0
2019-01-29T01:34:07.911Z,0
2019-01-29T01:35:15.675Z,0
2019-01-29T01:36:23.724Z,0
2019-01-29T01:37:31.779Z,0
2019-01-29T01:38:39.846Z,0
2019-01-29T01:39:47.887Z,0
2019-01-29T01:40:56.101Z,0
2019-01-29T01:42:03.966Z,0
2019-01-29T01:43:12.098Z,0
2019-01-29T01:44:20.104Z,0
2019-01-29T01:45:28.151Z,0
2019-01-29T01:46:36.203Z,0
2019-01-29T01:47:44.251Z,0
2019-01-29T01:48:52.321Z,0
2019-01-29T01:50:00.595Z,0
2019-01-29T01:51:43.205Z,0
2019-01-29T01:54:07.405Z,0
2019-01-29T01:55:15.455Z,0
2019-01-29T01:56:23.526Z,0
2019-01-29T01:57:31.557Z,0
2019-01-29T01:58:39.599Z,0
2019-01-29T01:59:47.665Z,0
2019-01-29T02:00:55.830Z,0
2019-01-29T02:02:03.759Z,0
2019-01-29T02:03:11.886Z,0
2019-01-29T02:04:19.872Z,0
2019-01-29T02:05:27.943Z,0
2019-01-29T02:06:35.987Z,0
2019-01-29T02:07:44.027Z,0
2019-01-29T02:08:52.101Z,0
2019-01-29T02:10:00.183Z,0
2019-01-29T02:11:08.198Z,0
2019-01-29T02:12:16.244Z,0
2019-01-29T02:13:24.273Z,0
2019-01-29T02:14:32.355Z,0
2019-01-29T02:15:40.421Z,0
2019-01-29T02:16:48.462Z,0
2019-01-29T02:17:56.517Z,0
2019-01-29T02:19:04.551Z,0
2019-01-29T02:20:12.643Z,0
2019-01-29T02:21:20.726Z,0
2019-01-29T02:22:28.774Z,0
2019-01-29T02:23:36.795Z,0
2019-01-29T02:24:44.891Z,0
2019-01-29T02:25:52.898Z,0
2019-01-29T02:27:00.966Z,0
2019-01-29T02:28:09.017Z,0
2019-01-29T02:29:17.067Z,0
2019-01-29T02:30:25.119Z,0
2019-01-29T02:31:33.177Z,0
2019-01-29T02:32:41.232Z,0
2019-01-29T02:33:49.269Z,0
2019-01-29T02:34:57.329Z,0
2019-01-29T02:36:05.394Z,0
2019-01-29T02:37:13.435Z,0
2019-01-29T02:38:21.502Z,0
2019-01-29T02:39:29.554Z,0
2019-01-29T02:40:37.591Z,0
2019-01-29T02:41:45.659Z,0
2019-01-29T02:42:53.750Z,0
2019-01-29T02:44:01.766Z,0
2019-01-29T02:45:09.820Z,0
2019-01-29T02:46:17.864Z,0
2019-01-29T02:47:25.914Z,0
2019-01-29T02:48:33.955Z,0
2019-01-29T02:49:42.049Z,0
2019-01-29T02:50:50.078Z,0
2019-01-29T02:51:58.125Z,0
2019-01-29T02:53:06.192Z,0
2019-01-29T02:54:14.227Z,0
2019-01-29T02:55:22.311Z,0
2019-01-29T02:56:30.366Z,0
2019-01-29T02:57:38.413Z,0
2019-01-29T02:58:46.468Z,0
2019-01-29T02:59:54.497Z,0
2019-01-29T03:01:02.614Z,0
2019-01-29T03:02:10.671Z,0
2019-01-29T03:03:18.688Z,0
2019-01-29T03:04:26.735Z,0
2019-01-29T03:05:34.791Z,0
2019-01-29T03:06:42.839Z,0
2019-01-29T03:07:50.905Z,0
2019-01-29T03:08:58.939Z,0
2019-01-29T03:10:07.010Z,0
2019-01-29T03:11:15.065Z,0
2019-01-29T03:12:23.128Z,0
2019-01-29T03:13:31.167Z,0
2019-01-29T03:14:39.235Z,0
2019-01-29T03:15:47.283Z,0
2019-01-29T03:16:55.337Z,0
2019-01-29T03:18:03.409Z,0
2019-01-29T03:19:11.450Z,0
2019-01-29T03:20:19.529Z,0
2019-01-29T03:21:27.559Z,0
2019-01-29T03:22:35.624Z,0
2019-01-29T03:23:43.687Z,0
2019-01-29T03:24:51.707Z,0
2019-01-29T03:25:59.766Z,0
2019-01-29T03:27:07.826Z,0
2019-01-29T03:28:15.893Z,0
2019-01-29T03:29:23.926Z,0
2019-01-29T03:30:32.008Z,0
2019-01-29T03:31:40.060Z,0
2019-01-29T03:32:48.109Z,0
2019-01-29T03:33:56.167Z,0
2019-01-29T03:35:04.183Z,0
2019-01-29T03:36:12.273Z,0
2019-01-29T03:37:20.332Z,0
2019-01-29T03:38:28.401Z,0
2019-01-29T03:39:36.442Z,0
2019-01-29T03:40:44.447Z,0
2019-01-29T03:41:52.522Z,0
2019-01-29T03:43:00.592Z,0
2019-01-29T03:44:08.660Z,0
2019-01-29T03:45:16.696Z,0
2019-01-29T03:46:24.739Z,0
2019-01-29T03:47:32.807Z,0
2019-01-29T03:48:40.862Z,0
2019-01-29T03:49:48.931Z,0
2019-01-29T03:50:56.972Z,0
2019-01-29T03:52:05.021Z,0
2019-01-29T03:53:13.077Z,0
2019-01-29T03:54:21.168Z,0
2019-01-29T03:55:29.194Z,0
2019-01-29T03:56:37.238Z,0
2019-01-29T03:57:45.305Z,0
2019-01-29T03:58:53.352Z,0
2019-01-29T04:00:01.491Z,0
2019-01-29T04:01:09.487Z,0
2019-01-29T04:02:17.523Z,0
2019-01-29T04:03:25.558Z,0
2019-01-29T04:04:33.632Z,0
2019-01-29T04:05:41.685Z,0
2019-01-29T04:06:49.757Z,0
2019-01-29T04:07:57.801Z,0
2019-01-29T04:09:05.859Z,0
2019-01-29T04:10:15.539Z,0
2019-01-29T04:11:21.958Z,0
2019-01-29T04:12:30.017Z,0
2019-01-29T04:13:38.062Z,0
2019-01-29T04:14:46.124Z,0
2019-01-29T04:15:54.194Z,0
2019-01-29T04:17:02.235Z,0
2019-01-29T04:18:10.294Z,0
2019-01-29T04:19:18.346Z,0
2019-01-29T04:20:26.407Z,0
2019-01-29T04:21:34.422Z,0
2019-01-29T04:22:42.517Z,0
2019-01-29T04:23:50.567Z,0
2019-01-29T04:24:58.641Z,0
2019-01-29T04:26:06.669Z,0
2019-01-29T04:27:14.703Z,0
2019-01-29T04:28:22.784Z,0
2019-01-29T04:29:30.835Z,0
2019-01-29T04:30:38.891Z,0
2019-01-29T04:31:46.961Z,0
2019-01-29T04:32:54.986Z,0
2019-01-29T04:34:03.056Z,0
2019-01-29T04:35:11.154Z,0
2019-01-29T04:36:19.172Z,0
2019-01-29T04:37:27.202Z,0
2019-01-29T04:38:35.276Z,0
2019-01-29T04:39:43.332Z,0
2019-01-29T04:40:51.401Z,0
2019-01-29T04:41:59.448Z,0
2019-01-29T04:43:07.501Z,0
2019-01-29T04:44:15.551Z,0
2019-01-29T04:45:23.595Z,0
2019-01-29T04:46:31.676Z,0
2019-01-29T04:47:39.721Z,0
2019-01-29T04:48:47.776Z,0
2019-01-29T04:49:55.833Z,0
2019-01-29T04:51:03.863Z,0
2019-01-29T04:52:11.928Z,0
2019-01-29T04:53:20.011Z,0
2019-01-29T04:54:28.050Z,0
2019-01-29T04:55:36.126Z,0
2019-01-29T04:56:44.138Z,0
2019-01-29T04:57:52.202Z,0
2019-01-29T04:59:00.260Z,0
2019-01-29T05:00:08.323Z,0
2019-01-29T05:01:18.239Z,0
2019-01-29T05:02:24.411Z,0
2019-01-29T05:03:32.490Z,0
2019-01-29T05:04:40.536Z,0
2019-01-29T05:05:48.617Z,0
2019-01-29T05:06:56.649Z,0
2019-01-29T05:08:04.710Z,0
2019-01-29T05:09:12.763Z,0
2019-01-29T05:10:20.817Z,0
2019-01-29T05:11:28.868Z,0
2019-01-29T05:12:36.909Z,0
2019-01-29T05:13:44.974Z,0
2019-01-29T05:14:53.069Z,0
2019-01-29T05:16:01.083Z,0
2019-01-29T05:17:09.152Z,0
2019-01-29T05:18:17.192Z,0
2019-01-29T05:19:25.262Z,0
2019-01-29T05:20:33.323Z,0
2019-01-29T05:21:41.365Z,0
2019-01-29T05:22:49.424Z,0
2019-01-29T05:24:06.430Z,0
2019-01-29T05:25:05.520Z,0
2019-01-29T05:26:13.578Z,0
2019-01-29T05:27:21.634Z,0
2019-01-29T05:28:29.672Z,0
2019-01-29T05:29:37.734Z,0
2019-01-29T05:30:45.805Z,0
2019-01-29T05:31:53.857Z,0
2019-01-29T05:33:01.912Z,0
2019-01-29T05:34:10.001Z,0
2019-01-29T05:35:18.016Z,0
2019-01-29T05:36:26.087Z,0
2019-01-29T05:37:34.109Z,0
2019-01-29T05:38:42.185Z,0
2019-01-29T05:39:50.238Z,0
2019-01-29T05:40:58.301Z,0
2019-01-29T05:42:06.555Z,0
2019-01-29T05:43:14.382Z,0
2019-01-29T05:44:22.950Z,0
2019-01-29T05:45:30.556Z,0
2019-01-29T05:46:39.037Z,0
2019-01-29T05:47:46.817Z,0
2019-01-29T05:48:54.695Z,0
2019-01-29T05:50:02.767Z,0
2019-01-29T05:51:10.846Z,0
2019-01-29T05:52:18.879Z,0
2019-01-29T05:53:27.013Z,0
2019-01-29T05:54:35.048Z,0
2019-01-29T05:55:43.043Z,0
2019-01-29T05:56:51.098Z,0
2019-01-29T05:57:59.633Z,0
2019-01-29T05:59:07.321Z,0
2019-01-29T06:00:15.271Z,0
2019-01-29T06:01:23.320Z,0
2019-01-29T06:02:31.366Z,0
2019-01-29T06:03:39.437Z,0
2019-01-29T06:04:47.498Z,0
2019-01-29T06:05:55.542Z,0
2019-01-29T06:07:03.597Z,0
2019-01-29T06:08:11.659Z,0
2019-01-29T06:09:19.710Z,0
2019-01-29T06:10:27.771Z,0
2019-01-29T06:11:35.814Z,0
2019-01-29T06:12:43.936Z,0
2019-01-29T06:13:51.960Z,0
2019-01-29T06:15:00.015Z,0
2019-01-29T06:16:08.073Z,0
2019-01-29T06:17:16.148Z,0
2019-01-29T06:18:24.463Z,0
2019-01-29T06:19:32.537Z,0
2019-01-29T06:20:40.259Z,0
2019-01-29T06:21:48.303Z,0
2019-01-29T06:22:56.374Z,0
2019-01-29T06:24:04.395Z,0
2019-01-29T06:25:12.480Z,0
2019-01-29T06:26:20.522Z,0
2019-01-29T06:27:28.585Z,4
2019-01-29T06:28:36.642Z,4
2019-01-29T06:29:44.672Z,4
2019-01-29T06:30:52.758Z,4
2019-01-29T06:32:00.804Z,4
2019-01-29T06:33:08.881Z,8
2019-01-29T06:34:16.920Z,8
2019-01-29T06:35:24.991Z,8
2019-01-29T06:36:33.016Z,12
2019-01-29T06:37:41.092Z,12
2019-01-29T06:38:49.135Z,16
2019-01-29T06:39:57.188Z,20
2019-01-29T06:41:05.251Z,24
2019-01-29T06:42:13.319Z,28
2019-01-29T06:43:21.356Z,32
2019-01-29T06:44:29.404Z,40
2019-01-29T06:45:37.456Z,48
2019-01-29T06:46:45.522Z,56
2019-01-29T06:47:53.587Z,68
2019-01-29T06:49:01.628Z,80
2019-01-29T06:50:09.692Z,92
2019-01-29T06:51:17.748Z,100
2019-01-29T06:52:25.809Z,120
2019-01-29T06:53:33.843Z,132
2019-01-29T06:54:41.907Z,144
2019-01-29T06:55:49.963Z,164
2019-01-29T06:56:58.045Z,184
2019-01-29T06:58:06.083Z,200
2019-01-29T06:59:14.118Z,224
2019-01-29T07:00:22.186Z,240
2019-01-29T07:01:30.231Z,264
2019-01-29T07:02:38.293Z,284
2019-01-29T07:03:46.358Z,304
2019-01-29T07:04:54.392Z,324
2019-01-29T07:06:02.481Z,344
2019-01-29T07:07:10.533Z,364
2019-01-29T07:08:18.574Z,396
2019-01-29T07:09:26.622Z,432
2019-01-29T07:10:34.666Z,468
2019-01-29T07:11:42.746Z,500
2019-01-29T07:12:50.812Z,544
2019-01-29T07:13:58.841Z,588
2019-01-29T07:15:06.908Z,628
2019-01-29T07:16:14.993Z,660
2019-01-29T07:17:23.029Z,688
2019-01-29T07:18:31.099Z,716
2019-01-29T07:19:39.115Z,728
2019-01-29T07:20:47.187Z,732
2019-01-29T07:21:55.224Z,732
2019-01-29T07:23:03.298Z,720
2019-01-29T07:24:11.324Z,704
2019-01-29T07:25:19.404Z,696
2019-01-29T07:26:27.454Z,696
2019-01-29T07:27:35.521Z,708
2019-01-29T07:28:43.564Z,740
2019-01-29T07:29:51.627Z,776
2019-01-29T07:30:59.689Z,812
2019-01-29T07:32:07.723Z,840
2019-01-29T07:33:15.784Z,872
2019-01-29T07:34:23.834Z,908
2019-01-29T07:35:31.904Z,940
2019-01-29T07:36:39.959Z,968
2019-01-29T07:37:48.007Z,1008
2019-01-29T07:38:56.054Z,1056
2019-01-29T07:40:04.121Z,1104
2019-01-29T07:41:12.174Z,1156
2019-01-29T07:42:20.219Z,1208
2019-01-29T07:43:28.280Z,1240
2019-01-29T07:44:36.326Z,1256
2019-01-29T07:45:44.394Z,1260
2019-01-29T07:46:52.449Z,1260
2019-01-29T07:48:00.511Z,1272
2019-01-29T07:49:08.584Z,1320
2019-01-29T07:50:16.606Z,1384
2019-01-29T07:51:24.698Z,1444
2019-01-29T07:52:32.768Z,1500
2019-01-29T07:53:40.785Z,1540
2019-01-29T07:54:51.168Z,1548
2019-01-29T07:55:56.923Z,1560
2019-01-29T07:57:04.960Z,1572
2019-01-29T07:58:13.023Z,1600
2019-01-29T07:59:32.278Z,1636
2019-01-29T08:00:29.121Z,1680
2019-01-29T08:01:37.185Z,1716
2019-01-29T08:02:45.245Z,1776
2019-01-29T08:03:53.294Z,1888
2019-01-29T08:05:01.358Z,2004
2019-01-29T08:06:09.416Z,2084
2019-01-29T08:07:17.498Z,2104
2019-01-29T08:08:25.518Z,2076
2019-01-29T08:09:33.619Z,2048
2019-01-29T08:10:41.623Z,2052
2019-01-29T08:11:49.687Z,2092
2019-01-29T08:12:57.749Z,2172
2019-01-29T08:14:05.792Z,2268
2019-01-29T08:15:13.834Z,2388
2019-01-29T08:16:21.920Z,2508
2019-01-29T08:17:30.060Z,2612
2019-01-29T08:18:38.005Z,2684
2019-01-29T08:19:46.068Z,2732
2019-01-29T08:20:54.104Z,2740
2019-01-29T08:22:02.181Z,2712
2019-01-29T08:23:10.223Z,2676
2019-01-29T08:24:18.349Z,2640
2019-01-29T08:25:26.338Z,2632
2019-01-29T08:26:34.388Z,2656
2019-01-29T08:27:42.486Z,2700
2019-01-29T08:28:50.516Z,2736
2019-01-29T08:29:58.626Z,2772
2019-01-29T08:31:06.619Z,2808
2019-01-29T08:32:14.677Z,2832
2019-01-29T08:33:22.746Z,2868
2019-01-29T08:34:30.803Z,2952
2019-01-29T08:35:38.865Z,3100
2019-01-29T08:36:46.925Z,3340
2019-01-29T08:37:54.965Z,3552
2019-01-29T08:39:03.013Z,3680
2019-01-29T08:40:11.073Z,3664
2019-01-29T08:41:19.156Z,3604
2019-01-29T08:42:27.188Z,3532
2019-01-29T08:43:35.253Z,3460
2019-01-29T08:44:43.316Z,3436
2019-01-29T08:45:51.367Z,3452
2019-01-29T08:46:59.427Z,3488
2019-01-29T08:48:07.481Z,3540
2019-01-29T08:49:15.526Z,3576
2019-01-29T08:50:23.626Z,3612
2019-01-29T08:51:31.688Z,3660
2019-01-29T08:52:39.747Z,3696
2019-01-29T08:53:47.756Z,3716
2019-01-29T08:54:55.807Z,3740
2019-01-29T08:56:03.854Z,3784
2019-01-29T08:57:11.922Z,3844
2019-01-29T08:58:26.849Z,3900
2019-01-29T08:59:28.029Z,3916
2019-01-29T09:00:36.095Z,3916
2019-01-29T09:01:44.175Z,3936
2019-01-29T09:02:52.226Z,3960
2019-01-29T09:04:00.264Z,4024
2019-01-29T09:05:08.318Z,4104
2019-01-29T09:06:16.391Z,4184
2019-01-29T09:07:24.427Z,4212
2019-01-29T09:08:32.492Z,4192
2019-01-29T09:09:40.550Z,4168
2019-01-29T09:10:48.651Z,4204
2019-01-29T09:11:56.695Z,4340
2019-01-29T09:13:04.692Z,4552
2019-01-29T09:14:12.792Z,4820
2019-01-29T09:15:20.827Z,5064
2019-01-29T09:16:28.887Z,5236
2019-01-29T09:17:36.959Z,5348
2019-01-29T09:18:45.005Z,5416
2019-01-29T09:19:53.063Z,5452
2019-01-29T09:21:01.127Z,5444
2019-01-29T09:22:09.188Z,5404
2019-01-29T09:23:17.245Z,5388
2019-01-29T09:24:25.297Z,5440
2019-01-29T09:25:33.336Z,5560
2019-01-29T09:26:41.420Z,5664
2019-01-29T09:27:49.452Z,5756
2019-01-29T09:28:57.529Z,5892
2019-01-29T09:30:05.587Z,6148
2019-01-29T09:31:13.642Z,6536
2019-01-29T09:32:21.694Z,7024
2019-01-29T09:33:29.785Z,7472
2019-01-29T09:34:37.819Z,7724
2019-01-29T09:35:45.898Z,7924
2019-01-29T09:36:53.913Z,8212
2019-01-29T09:38:01.994Z,8512
2019-01-29T09:39:10.048Z,8788
2019-01-29T09:40:18.091Z,8964
2019-01-29T09:41:26.151Z,9028
2019-01-29T09:42:34.195Z,9028
2019-01-29T09:43:42.291Z,9004
2019-01-29T09:44:50.320Z,9028
2019-01-29T09:45:58.382Z,9160
2019-01-29T09:47:06.416Z,8796
2019-01-29T09:48:14.491Z,8572
2019-01-29T09:49:22.582Z,8256
2019-01-29T09:50:30.628Z,7956
2019-01-29T09:51:38.683Z,7848
2019-01-29T09:52:46.739Z,7768
2019-01-29T09:53:54.790Z,7868
2019-01-29T09:55:02.866Z,7696
2019-01-29T09:56:10.955Z,7992
2019-01-29T09:57:18.978Z,8304
2019-01-29T09:58:27.012Z,8288
2019-01-29T09:59:35.087Z,8360
2019-01-29T10:00:43.151Z,7744
2019-01-29T10:01:51.211Z,7684
2019-01-29T10:02:59.271Z,8648
2019-01-29T10:04:07.317Z,8224
2019-01-29T10:05:15.392Z,9364
2019-01-29T10:06:23.437Z,8956
2019-01-29T10:07:31.535Z,8264
2019-01-29T10:08:39.620Z,7648
2019-01-29T10:09:47.663Z,7172
2019-01-29T10:10:55.679Z,6516
2019-01-29T10:12:03.729Z,5788
2019-01-29T10:13:11.793Z,5224
2019-01-29T10:14:19.866Z,4868
2019-01-29T10:15:27.923Z,4680
2019-01-29T10:16:35.978Z,3304
2019-01-29T10:17:44.017Z,3124
2019-01-29T10:18:52.098Z,3416
2019-01-29T10:20:02.613Z,4364
2019-01-29T10:21:08.216Z,6592
2019-01-29T10:22:16.290Z,8504
2019-01-29T10:23:24.362Z,10632
2019-01-29T10:24:32.404Z,12456
2019-01-29T10:25:40.457Z,11352
2019-01-29T10:26:48.508Z,8264
2019-01-29T10:27:56.569Z,7048
2019-01-29T10:29:04.619Z,7788
2019-01-29T10:30:12.690Z,8664
2019-01-29T10:31:20.735Z,9088
2019-01-29T10:32:28.815Z,8784
2019-01-29T10:33:36.868Z,8372
2019-01-29T10:34:44.913Z,8584
2019-01-29T10:35:52.994Z,8752
2019-01-29T10:37:01.039Z,8344
2019-01-29T10:38:09.123Z,8740
2019-01-29T10:39:17.186Z,9140
2019-01-29T10:40:25.227Z,8824
2019-01-29T10:41:33.288Z,8920
2019-01-29T10:42:41.352Z,7808
2019-01-29T10:43:49.394Z,7176
2019-01-29T10:44:57.454Z,6884
2019-01-29T10:46:05.527Z,6388
2019-01-29T10:47:13.592Z,7108
2019-01-29T10:48:21.678Z,4944
2019-01-29T10:49:29.714Z,4488
2019-01-29T10:50:37.759Z,4416
2019-01-29T10:51:45.864Z,4508
2019-01-29T10:52:53.864Z,4672
2019-01-29T10:54:01.922Z,4008
2019-01-29T10:55:09.996Z,4260
2019-01-29T10:56:18.066Z,5152
2019-01-29T10:57:26.121Z,5088
2019-01-29T10:58:34.170Z,4568
2019-01-29T10:59:42.228Z,4772
2019-01-29T11:00:50.327Z,4132
2019-01-29T11:01:58.375Z,4356
2019-01-29T11:03:06.428Z,4484
2019-01-29T11:04:14.474Z,5324
2019-01-29T11:05:22.526Z,5644
2019-01-29T11:06:30.607Z,4184
2019-01-29T11:07:38.659Z,4368
2019-01-29T11:08:46.712Z,4564
2019-01-29T11:09:54.778Z,4408
2019-01-29T11:11:02.824Z,5584
2019-01-29T11:12:10.905Z,7084
2019-01-29T11:13:18.957Z,6132
2019-01-29T11:14:26.980Z,5384
2019-01-29T11:15:35.057Z,4676
2019-01-29T11:16:43.144Z,4876
2019-01-29T11:17:51.163Z,5780
2019-01-29T11:19:03.228Z,5128
2019-01-29T11:20:07.338Z,5364
2019-01-29T11:21:15.358Z,5932
2019-01-29T11:22:23.415Z,5028
2019-01-29T11:23:31.480Z,4108
2019-01-29T11:24:39.521Z,3564
2019-01-29T11:25:55.365Z,3340
2019-01-29T11:26:55.641Z,3156
2019-01-29T11:28:03.696Z,3136
2019-01-29T11:29:11.762Z,3036
2019-01-29T11:30:19.823Z,2920
2019-01-29T11:31:29.554Z,2932
2019-01-29T11:32:35.941Z,3196
2019-01-29T11:33:43.988Z,3688
2019-01-29T11:34:52.028Z,4096
2019-01-29T11:36:00.096Z,5216
2019-01-29T11:37:08.162Z,5112
2019-01-29T11:38:16.220Z,5220
2019-01-29T11:39:24.297Z,5236
2019-01-29T11:40:32.353Z,5044
2019-01-29T11:41:40.416Z,4820
2019-01-29T11:42:48.469Z,4640
2019-01-29T11:43:56.522Z,4340
2019-01-29T11:45:04.568Z,4120
2019-01-29T11:46:12.628Z,3352
2019-01-29T11:47:20.695Z,3080
2019-01-29T11:48:28.797Z,3000
2019-01-29T11:49:36.794Z,2944
2019-01-29T11:50:44.881Z,3080
2019-01-29T11:51:52.947Z,3280
2019-01-29T11:53:00.976Z,3336
2019-01-29T11:54:09.043Z,3560
2019-01-29T11:55:17.091Z,4172
2019-01-29T11:56:25.162Z,4284
2019-01-29T11:57:33.217Z,3868
2019-01-29T11:58:41.842Z,3728
2019-01-29T11:59:49.326Z,3784
2019-01-29T12:00:57.421Z,3916
2019-01-29T12:02:05.447Z,4320
2019-01-29T12:03:13.516Z,4528
2019-01-29T12:04:21.563Z,4056
2019-01-29T12:05:29.685Z,3548
2019-01-29T12:06:37.678Z,3544
2019-01-29T12:07:45.733Z,3708
2019-01-29T12:08:53.788Z,4280
2019-01-29T12:10:01.848Z,4532
2019-01-29T12:11:09.898Z,5100
2019-01-29T12:12:17.969Z,5892
2019-01-29T12:13:26.022Z,6868
2019-01-29T12:14:34.038Z,7460
2019-01-29T12:15:42.115Z,8684
2019-01-29T12:16:50.185Z,9904
2019-01-29T12:17:58.255Z,10640
2019-01-29T12:19:06.313Z,12340
2019-01-29T12:20:14.360Z,13160
2019-01-29T12:21:22.428Z,11584
2019-01-29T12:22:30.495Z,9820
2019-01-29T12:23:38.528Z,8668
2019-01-29T12:24:46.603Z,8184
2019-01-29T12:25:54.637Z,7924
2019-01-29T12:27:02.729Z,7464
2019-01-29T12:28:10.777Z,6612
2019-01-29T12:29:18.873Z,5688
2019-01-29T12:30:26.921Z,5168
2019-01-29T12:31:34.952Z,4888
2019-01-29T12:32:43.023Z,4764
2019-01-29T12:33:51.067Z,4536
2019-01-29T12:34:59.128Z,4348
2019-01-29T12:36:07.186Z,4512
2019-01-29T12:37:15.252Z,4992
2019-01-29T12:38:23.306Z,5412
2019-01-29T12:39:31.369Z,6324
2019-01-29T12:40:39.422Z,7100
2019-01-29T12:41:47.498Z,6912
2019-01-29T12:42:55.552Z,6440
2019-01-29T12:44:03.600Z,5292
2019-01-29T12:45:11.664Z,5104
2019-01-29T12:46:19.709Z,5556
2019-01-29T12:47:27.790Z,6600
2019-01-29T12:48:35.894Z,7052
2019-01-29T12:49:43.879Z,6796
2019-01-29T12:50:51.960Z,6016
2019-01-29T12:52:00.009Z,5388
2019-01-29T12:53:08.088Z,4768
2019-01-29T12:54:16.141Z,4936
2019-01-29T12:55:24.172Z,4964
2019-01-29T12:56:32.291Z,4828
2019-01-29T12:57:40.309Z,4608
2019-01-29T12:58:48.387Z,4428
2019-01-29T12:59:56.427Z,4420
2019-01-29T13:01:04.486Z,4548
2019-01-29T13:02:12.570Z,4512
2019-01-29T13:03:20.761Z,4336
2019-01-29T13:04:28.706Z,3744
2019-01-29T13:05:36.728Z,3588
2019-01-29T13:06:44.827Z,3412
2019-01-29T13:07:52.826Z,3388
2019-01-29T13:09:00.915Z,3292
2019-01-29T13:10:08.971Z,3104
2019-01-29T13:11:17.023Z,2924
2019-01-29T13:12:25.085Z,2968
2019-01-29T13:13:33.151Z,3000
2019-01-29T13:14:41.211Z,2960
2019-01-29T13:15:49.258Z,2884
2019-01-29T13:16:57.324Z,2776
2019-01-29T13:18:05.396Z,2728
2019-01-29T13:19:13.450Z,2824
2019-01-29T13:20:21.512Z,2952
2019-01-29T13:21:29.570Z,3160
2019-01-29T13:22:37.621Z,3208
2019-01-29T13:23:45.670Z,3212
2019-01-29T13:24:53.724Z,3500
2019-01-29T13:26:01.783Z,3608
2019-01-29T13:27:09.841Z,3588
2019-01-29T13:28:17.919Z,3652
2019-01-29T13:29:25.958Z,3964
2019-01-29T13:30:34.001Z,4160
2019-01-29T13:31:42.077Z,4164
2019-01-29T13:32:50.127Z,4136
2019-01-29T13:33:58.204Z,4196
2019-01-29T13:35:06.248Z,4408
2019-01-29T13:36:14.293Z,4436
2019-01-29T13:37:22.387Z,4340
2019-01-29T13:38:30.423Z,3816
2019-01-29T13:39:38.489Z,3344
2019-01-29T13:40:46.527Z,3012
2019-01-29T13:41:54.589Z,2984
2019-01-29T13:43:02.676Z,3076
2019-01-29T13:44:10.716Z,3104
2019-01-29T13:45:18.911Z,3084
2019-01-29T13:46:26.839Z,3324
2019-01-29T13:47:34.895Z,3360
2019-01-29T13:48:42.954Z,3332
2019-01-29T13:49:51.017Z,2832
2019-01-29T13:50:59.077Z,2656
2019-01-29T13:52:07.114Z,2544
2019-01-29T13:53:15.172Z,2472
2019-01-29T13:54:23.946Z,2424
2019-01-29T13:55:31.317Z,2396
2019-01-29T13:56:39.365Z,2468
2019-01-29T13:57:47.416Z,2608
2019-01-29T13:58:55.484Z,2416
2019-01-29T14:00:03.520Z,2400
2019-01-29T14:01:11.585Z,2604
2019-01-29T14:02:19.636Z,2412
2019-01-29T14:03:27.711Z,2384
2019-01-29T14:04:35.760Z,2360
2019-01-29T14:05:43.798Z,2328
2019-01-29T14:06:51.890Z,2288
2019-01-29T14:07:59.951Z,2260
2019-01-29T14:09:07.991Z,2236
2019-01-29T14:10:16.058Z,2208
2019-01-29T14:11:24.077Z,2192
2019-01-29T14:12:32.168Z,2184
2019-01-29T14:13:40.216Z,2184
2019-01-29T14:14:48.291Z,2196
2019-01-29T14:15:56.354Z,2212
2019-01-29T14:17:04.376Z,2228
2019-01-29T14:18:12.435Z,2256
2019-01-29T14:19:20.550Z,2276
2019-01-29T14:20:28.559Z,2292
2019-01-29T14:21:36.615Z,2300
2019-01-29T14:22:44.656Z,2304
2019-01-29T14:23:52.726Z,2312
2019-01-29T14:25:00.798Z,2308
2019-01-29T14:26:08.861Z,2300
2019-01-29T14:27:16.906Z,2304
2019-01-29T14:28:24.954Z,2300
2019-01-29T14:29:33.015Z,2320
2019-01-29T14:30:41.099Z,2320
2019-01-29T14:31:49.123Z,2308
2019-01-29T14:32:57.187Z,2284
2019-01-29T14:34:05.255Z,2248
2019-01-29T14:35:13.352Z,2220
2019-01-29T14:36:21.349Z,2184
2019-01-29T14:37:29.787Z,2172
2019-01-29T14:38:37.472Z,2256
2019-01-29T14:39:45.528Z,2244
2019-01-29T14:40:53.594Z,2192
2019-01-29T14:42:01.650Z,2160
2019-01-29T14:43:09.756Z,2096
2019-01-29T14:44:17.769Z,2136
2019-01-29T14:45:25.830Z,2144
2019-01-29T14:46:33.873Z,2156
2019-01-29T14:47:43.719Z,2188
2019-01-29T14:48:49.986Z,2188
2019-01-29T14:49:58.064Z,2180
2019-01-29T14:51:06.140Z,2188
2019-01-29T14:52:14.604Z,2160
2019-01-29T14:53:22.485Z,2088
2019-01-29T14:54:30.259Z,2032
2019-01-29T14:55:38.331Z,1992
2019-01-29T14:56:46.389Z,1944
2019-01-29T14:57:54.415Z,1908
2019-01-29T14:59:02.530Z,1864
2019-01-29T15:00:10.527Z,1836
2019-01-29T15:01:18.615Z,1800
2019-01-29T15:02:26.649Z,1764
2019-01-29T15:03:34.705Z,1740
2019-01-29T15:04:42.792Z,1708
2019-01-29T15:05:50.824Z,1684
2019-01-29T15:06:58.879Z,1648
2019-01-29T15:08:07.001Z,1628
2019-01-29T15:09:14.983Z,1596
2019-01-29T15:10:23.037Z,1556
2019-01-29T15:11:31.110Z,1528
2019-01-29T15:12:39.164Z,1508
2019-01-29T15:13:47.210Z,1484
2019-01-29T15:14:55.300Z,1468
2019-01-29T15:16:03.320Z,1444
2019-01-29T15:17:11.365Z,1416
2019-01-29T15:18:19.435Z,1404
2019-01-29T15:19:27.492Z,1388
2019-01-29T15:20:35.533Z,1372
2019-01-29T15:21:43.606Z,1344
2019-01-29T15:22:51.708Z,1324
2019-01-29T15:23:59.730Z,1304
2019-01-29T15:25:07.824Z,1280
2019-01-29T15:26:15.817Z,1256
2019-01-29T15:27:23.885Z,1228
2019-01-29T15:28:31.922Z,1200
2019-01-29T15:29:40.005Z,1176
2019-01-29T15:30:48.025Z,1152
2019-01-29T15:31:56.080Z,1132
2019-01-29T15:33:04.128Z,1112
2019-01-29T15:34:12.186Z,1092
2019-01-29T15:35:20.261Z,1076
2019-01-29T15:36:28.320Z,1056
2019-01-29T15:37:36.378Z,1040
2019-01-29T15:38:44.426Z,1028
2019-01-29T15:39:52.465Z,1012
2019-01-29T15:41:00.538Z,996
2019-01-29T15:42:08.581Z,980
2019-01-29T15:43:16.827Z,964
2019-01-29T15:46:39.667Z,908
2019-01-29T15:48:55.783Z,864
2019-01-29T15:50:03.806Z,836
2019-01-29T15:51:11.850Z,808
2019-01-29T15:52:19.920Z,776
2019-01-29T15:53:27.978Z,744